createdAt,value
2019-02-19T00:01:23.623Z,47.50
2019-02-19T00:03:54.122Z,47.50
2019-02-19T00:06:24.605Z,47.60
2019-02-19T00:08:55.140Z,47.50
2019-02-19T00:11:25.776Z,47.60
2019-02-19T00:13:56.437Z,47.60
2019-02-19T00:16:27.243Z,47.60
2019-02-19T00:18:57.893Z,47.70
2019-02-19T00:21:28.654Z,47.70
2019-02-19T00:24:06.770Z,47.70
2019-02-19T00:26:37.588Z,47.80
2019-02-19T00:29:08.236Z,48.50
2019-02-19T00:31:39.026Z,47.80
2019-02-19T00:34:09.717Z,47.90
2019-02-19T00:36:40.408Z,47.90
2019-02-19T00:39:11.060Z,48.00
2019-02-19T00:41:41.634Z,47.90
2019-02-19T00:44:12.302Z,48.00
2019-02-19T00:46:42.946Z,48.00
2019-02-19T00:49:13.766Z,48.10
2019-02-19T00:51:44.477Z,48.20
2019-02-19T00:54:15.129Z,48.20
2019-02-19T00:56:45.761Z,48.30
2019-02-19T00:59:16.326Z,48.30
2019-02-19T01:01:46.961Z,48.30
2019-02-19T01:04:17.665Z,48.30
2019-02-19T01:06:48.421Z,48.30
2019-02-19T01:09:19.247Z,48.30
2019-02-19T01:11:49.802Z,48.30
2019-02-19T01:14:20.470Z,48.30
2019-02-19T01:16:50.872Z,48.40
2019-02-19T01:19:21.627Z,48.40
2019-02-19T01:21:52.457Z,48.40
2019-02-19T01:24:22.997Z,48.50
2019-02-19T01:26:53.442Z,48.50
2019-02-19T01:29:24.066Z,48.40
2019-02-19T01:31:55.046Z,48.50
2019-02-19T01:34:25.768Z,48.40
2019-02-19T01:36:56.480Z,48.40
2019-02-19T01:39:27.400Z,48.50
2019-02-19T01:41:58.086Z,48.50
2019-02-19T01:44:28.814Z,48.60
2019-02-19T01:46:59.520Z,48.50
2019-02-19T01:49:30.061Z,48.50
2019-02-19T01:52:00.708Z,48.50
2019-02-19T01:54:31.482Z,48.60
2019-02-19T01:57:01.965Z,48.50
2019-02-19T01:59:32.651Z,48.60
2019-02-19T02:02:03.395Z,48.50
2019-02-19T02:04:34.382Z,48.50
2019-02-19T02:07:05.230Z,48.50
2019-02-19T02:09:35.882Z,48.50
2019-02-19T02:12:06.437Z,48.60
2019-02-19T02:14:37.116Z,48.70
2019-02-19T02:17:07.733Z,48.70
2019-02-19T02:19:38.400Z,48.70
2019-02-19T02:22:09.759Z,48.70
2019-02-19T02:24:40.330Z,49.30
2019-02-19T02:27:10.980Z,48.80
2019-02-19T02:29:41.529Z,48.70
2019-02-19T02:32:13.010Z,48.70
2019-02-19T02:34:43.625Z,48.80
2019-02-19T02:37:15.231Z,48.80
2019-02-19T02:39:47.008Z,48.80
2019-02-19T02:42:17.587Z,48.80
2019-02-19T02:44:48.168Z,48.80
2019-02-19T02:47:18.630Z,48.90
2019-02-19T02:49:49.429Z,48.90
2019-02-19T02:52:19.930Z,48.80
2019-02-19T02:54:50.554Z,48.70
2019-02-19T02:57:21.197Z,48.70
2019-02-19T02:59:51.816Z,48.70
2019-02-19T03:02:22.484Z,48.80
2019-02-19T03:04:52.896Z,48.80
2019-02-19T03:07:39.277Z,48.80
2019-02-19T03:10:09.873Z,48.80
2019-02-19T03:12:40.670Z,48.80
2019-02-19T03:15:12.114Z,48.90
2019-02-19T03:17:42.670Z,48.70
2019-02-19T03:20:13.415Z,48.90
2019-02-19T03:22:43.914Z,48.80
2019-02-19T03:25:14.668Z,48.90
2019-02-19T03:27:45.317Z,48.90
2019-02-19T03:30:15.933Z,49.00
2019-02-19T03:32:46.636Z,48.90
2019-02-19T03:35:17.419Z,49.00
2019-02-19T03:37:49.683Z,49.00
2019-02-19T03:40:20.611Z,49.00
2019-02-19T03:42:51.468Z,49.00
2019-02-19T03:45:22.325Z,48.90
2019-02-19T03:47:52.913Z,48.80
2019-02-19T03:50:23.711Z,48.90
2019-02-19T03:52:54.303Z,48.90
2019-02-19T03:55:24.924Z,48.90
2019-02-19T03:57:55.538Z,49.00
2019-02-19T04:00:26.271Z,49.00
2019-02-19T04:02:56.824Z,49.00
2019-02-19T04:05:27.517Z,49.10
2019-02-19T04:07:58.485Z,49.10
2019-02-19T04:10:29.123Z,49.10
2019-02-19T04:13:00.389Z,49.10
2019-02-19T04:15:31.100Z,49.00
2019-02-19T04:18:01.602Z,48.90
2019-02-19T04:20:32.380Z,48.90
2019-02-19T04:23:03.000Z,49.00
2019-02-19T04:25:33.654Z,49.00
2019-02-19T04:28:06.744Z,49.00
2019-02-19T04:30:37.479Z,48.70
2019-02-19T04:33:08.201Z,49.10
2019-02-19T04:35:38.715Z,49.10
2019-02-19T04:38:09.269Z,48.90
2019-02-19T04:40:39.954Z,48.90
2019-02-19T04:43:10.504Z,49.00
2019-02-19T04:45:41.124Z,48.80
2019-02-19T04:48:11.801Z,48.90
2019-02-19T04:50:42.471Z,48.90
2019-02-19T04:53:13.217Z,49.50
2019-02-19T04:55:43.661Z,48.90
2019-02-19T04:58:14.613Z,48.90
2019-02-19T05:00:45.070Z,48.90
2019-02-19T05:03:15.514Z,48.90
2019-02-19T05:05:45.958Z,49.00
2019-02-19T05:08:16.864Z,49.00
2019-02-19T05:10:47.580Z,48.90
2019-02-19T05:13:18.294Z,49.50
2019-02-19T05:15:49.290Z,49.00
2019-02-19T05:18:20.037Z,48.90
2019-02-19T05:20:50.589Z,49.00
2019-02-19T05:23:21.124Z,49.00
2019-02-19T05:25:51.840Z,48.90
2019-02-19T05:28:26.007Z,48.90
2019-02-19T05:30:56.709Z,48.90
2019-02-19T05:33:27.262Z,48.90
2019-02-19T05:35:58.326Z,48.90
2019-02-19T05:38:28.908Z,48.90
2019-02-19T05:40:59.551Z,48.90
2019-02-19T05:43:30.268Z,48.80
2019-02-19T05:46:00.943Z,49.10
2019-02-19T05:48:31.393Z,48.80
2019-02-19T05:51:01.986Z,48.80
2019-02-19T05:53:32.598Z,48.90
2019-02-19T05:56:03.271Z,48.80
2019-02-19T05:58:33.978Z,49.00
2019-02-19T06:01:04.742Z,49.20
2019-02-19T06:03:35.458Z,49.00
2019-02-19T06:06:05.879Z,49.10
2019-02-19T06:08:36.646Z,48.90
2019-02-19T06:11:07.531Z,49.00
2019-02-19T06:13:38.294Z,49.00
2019-02-19T06:16:08.777Z,49.00
2019-02-19T06:18:39.591Z,49.10
2019-02-19T06:21:10.191Z,49.40
2019-02-19T06:23:40.873Z,49.90
2019-02-19T06:26:11.400Z,57.00
2019-02-19T06:28:42.195Z,54.10
2019-02-19T06:31:13.029Z,52.00
2019-02-19T06:33:43.592Z,50.60
2019-02-19T06:36:14.149Z,50.20
2019-02-19T06:38:44.783Z,50.10
2019-02-19T06:41:15.661Z,49.50
2019-02-19T06:43:46.368Z,49.10
2019-02-19T06:46:17.053Z,49.50
2019-02-19T06:48:47.637Z,49.30
2019-02-19T06:51:18.475Z,48.60
2019-02-19T06:53:49.214Z,48.60
2019-02-19T06:56:19.902Z,46.50
2019-02-19T06:58:50.351Z,45.40
2019-02-19T07:01:32.490Z,46.00
2019-02-19T07:04:07.915Z,45.70
2019-02-19T07:06:38.658Z,46.10
2019-02-19T07:09:09.346Z,46.60
2019-02-19T07:11:40.021Z,46.80
2019-02-19T07:14:10.757Z,46.40
2019-02-19T07:16:41.320Z,46.20
2019-02-19T07:19:11.775Z,46.10
2019-02-19T07:21:42.440Z,46.20
2019-02-19T07:24:13.089Z,46.20
2019-02-19T07:26:43.932Z,46.30
2019-02-19T07:29:15.127Z,46.50
2019-02-19T07:31:45.773Z,46.70
2019-02-19T07:34:16.459Z,46.80
2019-02-19T07:36:47.160Z,46.20
2019-02-19T07:39:17.648Z,46.40
2019-02-19T07:41:48.324Z,46.50
2019-02-19T07:44:19.055Z,46.60
2019-02-19T07:46:49.708Z,46.70
2019-02-19T07:49:20.424Z,46.80
2019-02-19T07:51:51.085Z,46.90
2019-02-19T07:54:21.890Z,47.20
2019-02-19T07:56:52.660Z,47.30
2019-02-19T07:59:23.488Z,45.70
2019-02-19T08:01:54.132Z,44.90
2019-02-19T08:04:24.805Z,42.70
2019-02-19T08:06:55.559Z,41.40
2019-02-19T08:09:26.386Z,40.60
2019-02-19T08:11:57.177Z,39.50
2019-02-19T08:14:28.612Z,38.30
2019-02-19T08:16:59.418Z,37.20
2019-02-19T08:19:30.274Z,36.00
2019-02-19T08:22:01.048Z,35.40
2019-02-19T08:24:31.760Z,36.20
2019-02-19T08:27:02.438Z,37.30
2019-02-19T08:29:33.211Z,38.20
2019-02-19T08:32:03.825Z,38.70
2019-02-19T08:34:34.337Z,39.10
2019-02-19T08:37:04.949Z,36.20
2019-02-19T08:39:35.603Z,35.00
2019-02-19T08:42:06.741Z,34.70
2019-02-19T08:44:37.271Z,34.60
2019-02-19T08:47:07.868Z,35.00
2019-02-19T08:49:38.458Z,35.70
2019-02-19T08:52:09.084Z,36.30
2019-02-19T08:54:40.116Z,36.90
2019-02-19T08:57:10.863Z,37.30
2019-02-19T08:59:41.481Z,37.60
2019-02-19T09:02:12.121Z,37.90
2019-02-19T09:04:43.048Z,38.20
2019-02-19T09:07:13.932Z,38.30
2019-02-19T09:09:44.519Z,38.60
2019-02-19T09:12:15.291Z,38.90
2019-02-19T09:14:46.069Z,39.00
2019-02-19T09:17:16.652Z,39.10
2019-02-19T09:19:47.259Z,39.30
2019-02-19T09:22:17.761Z,39.50
2019-02-19T09:24:48.307Z,39.70
2019-02-19T09:27:18.936Z,39.90
2019-02-19T09:29:50.463Z,40.10
2019-02-19T09:32:21.141Z,40.30
2019-02-19T09:34:52.710Z,40.40
2019-02-19T09:37:23.533Z,40.50
2019-02-19T09:39:54.235Z,40.70
2019-02-19T09:42:24.771Z,40.80
2019-02-19T09:44:55.263Z,40.90
2019-02-19T09:47:26.033Z,41.10
2019-02-19T09:49:56.713Z,41.80
2019-02-19T09:52:27.317Z,41.30
2019-02-19T09:54:57.949Z,41.40
2019-02-19T09:57:28.678Z,41.60
2019-02-19T09:59:59.414Z,42.00
2019-02-19T10:02:30.063Z,42.20
2019-02-19T10:05:00.480Z,42.60
2019-02-19T10:07:31.246Z,42.80
2019-02-19T10:10:01.928Z,43.10
2019-02-19T10:12:32.471Z,43.30
2019-02-19T10:15:03.197Z,43.40
2019-02-19T10:17:33.981Z,43.60
2019-02-19T10:20:04.871Z,43.80
2019-02-19T10:22:35.627Z,43.90
2019-02-19T10:25:07.234Z,44.10
2019-02-19T10:27:37.700Z,44.20
2019-02-19T10:30:10.881Z,44.40
2019-02-19T10:32:41.616Z,44.30
2019-02-19T10:35:12.875Z,44.00
2019-02-19T10:37:43.446Z,43.90
2019-02-19T10:40:15.494Z,43.90
2019-02-19T10:42:46.239Z,44.30
2019-02-19T10:45:18.411Z,44.40
2019-02-19T10:47:49.106Z,44.70
2019-02-19T10:50:19.960Z,44.50
2019-02-19T10:52:51.748Z,44.50
2019-02-19T10:55:22.422Z,44.60
2019-02-19T10:57:53.002Z,44.60
2019-02-19T11:00:24.313Z,44.50
2019-02-19T11:02:55.033Z,44.80
2019-02-19T11:05:25.829Z,44.50
2019-02-19T11:07:56.537Z,45.20
2019-02-19T11:10:27.395Z,45.40
2019-02-19T11:12:58.306Z,45.50
2019-02-19T11:15:29.149Z,45.30
2019-02-19T11:17:59.935Z,45.10
2019-02-19T11:20:30.506Z,56.50
2019-02-19T11:23:01.067Z,50.40
2019-02-19T11:25:31.785Z,49.90
2019-02-19T11:28:02.593Z,49.40
2019-02-19T11:30:33.313Z,49.20
2019-02-19T11:33:04.179Z,48.40
2019-02-19T11:35:34.730Z,48.20
2019-02-19T11:38:05.396Z,47.70
2019-02-19T11:40:36.000Z,47.50
2019-02-19T11:43:06.691Z,47.50
2019-02-19T11:45:37.209Z,47.50
2019-02-19T11:48:07.987Z,47.30
2019-02-19T11:50:38.703Z,47.50
2019-02-19T11:53:09.365Z,47.50
2019-02-19T11:55:40.257Z,47.50
2019-02-19T11:58:10.799Z,47.50
2019-02-19T12:00:42.213Z,47.50
2019-02-19T12:03:12.675Z,47.20
2019-02-19T12:05:43.446Z,47.20
2019-02-19T12:08:14.242Z,47.20
2019-02-19T12:10:45.022Z,47.90
2019-02-19T12:13:16.128Z,47.10
2019-02-19T12:15:46.918Z,46.90
2019-02-19T12:18:17.400Z,46.50
2019-02-19T12:20:48.235Z,46.90
2019-02-19T12:23:18.906Z,47.20
2019-02-19T12:25:49.798Z,47.40
2019-02-19T12:28:20.525Z,47.70
2019-02-19T12:30:51.372Z,47.50
2019-02-19T12:33:22.032Z,47.00
2019-02-19T12:35:54.287Z,47.60
2019-02-19T12:38:24.869Z,47.80
2019-02-19T12:40:56.133Z,48.00
2019-02-19T12:43:27.101Z,47.10
2019-02-19T12:45:57.821Z,47.50
2019-02-19T12:48:28.822Z,47.60
2019-02-19T12:50:59.603Z,47.50
2019-02-19T12:53:30.568Z,47.30
2019-02-19T12:56:02.699Z,47.40
2019-02-19T12:58:33.910Z,47.50
2019-02-19T13:01:05.890Z,47.10
2019-02-19T13:03:36.581Z,47.20
2019-02-19T13:06:07.685Z,47.30
2019-02-19T13:08:38.586Z,47.50
2019-02-19T13:11:09.027Z,47.40
2019-02-19T13:13:39.694Z,47.60
2019-02-19T13:16:10.553Z,47.80
2019-02-19T13:18:41.679Z,47.80
2019-02-19T13:21:12.979Z,47.70
2019-02-19T13:23:43.753Z,47.70
2019-02-19T13:26:14.467Z,48.60
2019-02-19T13:28:44.854Z,47.80
2019-02-19T13:31:15.755Z,47.80
2019-02-19T13:33:46.625Z,47.90
2019-02-19T13:36:19.085Z,47.60
2019-02-19T13:38:51.221Z,47.60
2019-02-19T13:41:23.806Z,47.60
2019-02-19T13:43:54.695Z,47.60
2019-02-19T13:46:26.526Z,47.50
2019-02-19T13:48:57.825Z,47.30
2019-02-19T13:51:29.443Z,46.80
2019-02-19T13:54:10.603Z,46.60
2019-02-19T13:56:41.561Z,47.70
2019-02-19T13:59:12.361Z,47.20
2019-02-19T14:01:43.064Z,47.10
2019-02-19T14:04:16.025Z,47.20
2019-02-19T14:06:46.702Z,47.10
2019-02-19T14:09:17.421Z,47.10
2019-02-19T14:11:48.057Z,47.40
2019-02-19T14:14:40.783Z,48.10
2019-02-19T14:17:15.628Z,49.00
2019-02-19T14:20:03.362Z,49.80
2019-02-19T14:23:01.363Z,50.40
2019-02-19T14:25:53.841Z,49.00
2019-02-19T14:28:42.612Z,49.30
2019-02-19T14:31:41.374Z,48.70
2019-02-19T14:34:29.681Z,49.00
2019-02-19T14:37:19.841Z,49.40
2019-02-19T14:40:18.728Z,49.50
2019-02-19T14:43:14.703Z,49.30
2019-02-19T14:45:55.876Z,49.30
2019-02-19T14:48:45.435Z,49.50
2019-02-19T14:51:37.701Z,49.70
2019-02-19T14:54:25.820Z,49.50
2019-02-19T14:57:33.628Z,49.40
2019-02-19T15:00:38.341Z,49.50
2019-02-19T15:03:27.052Z,49.50
2019-02-19T15:06:14.300Z,50.40
2019-02-19T15:09:16.039Z,49.70
2019-02-19T15:11:59.832Z,49.30
2019-02-19T15:14:47.723Z,48.70
2019-02-19T15:17:34.372Z,48.50
2019-02-19T15:20:22.418Z,48.40
2019-02-19T15:23:11.964Z,48.30
2019-02-19T15:26:13.606Z,48.40
2019-02-19T15:29:03.622Z,48.60
2019-02-19T15:32:11.162Z,48.80
2019-02-19T15:34:57.704Z,48.80
2019-02-19T15:37:34.496Z,49.00
2019-02-19T15:40:27.321Z,49.10
2019-02-19T15:43:16.650Z,49.00
2019-02-19T15:46:02.423Z,48.90
2019-02-19T15:48:50.971Z,49.30
2019-02-19T15:51:40.478Z,49.30
2019-02-19T15:54:28.779Z,49.80
2019-02-19T15:57:22.199Z,49.60
2019-02-19T16:00:10.598Z,49.30
2019-02-19T16:03:03.454Z,48.90
2019-02-19T16:05:59.629Z,48.80
2019-02-19T16:08:47.652Z,48.60
2019-02-19T16:11:44.428Z,48.50
2019-02-19T16:14:36.930Z,48.40
2019-02-19T16:17:29.628Z,48.50
2019-02-19T16:20:19.338Z,48.60
2019-02-19T16:23:07.959Z,48.80
2019-02-19T16:25:57.647Z,48.60
2019-02-19T16:28:34.001Z,48.50
2019-02-19T16:31:11.292Z,48.40
2019-02-19T16:33:56.904Z,48.50
2019-02-19T16:36:46.485Z,48.70
2019-02-19T16:39:29.464Z,49.00
2019-02-19T16:42:25.116Z,49.20
2019-02-19T16:45:18.084Z,48.90
2019-02-19T16:48:10.918Z,48.80
2019-02-19T16:50:59.319Z,48.70
2019-02-19T16:53:37.295Z,48.60
2019-02-19T16:56:25.114Z,52.40
2019-02-19T16:59:23.894Z,51.00
2019-02-19T17:02:09.596Z,50.90
2019-02-19T17:04:51.784Z,51.40
2019-02-19T17:07:36.674Z,51.60
2019-02-19T17:10:30.570Z,51.50
2019-02-19T17:13:20.140Z,51.50
2019-02-19T17:16:09.860Z,51.60
2019-02-19T17:18:51.008Z,51.70
2019-02-19T17:21:31.435Z,51.30
2019-02-19T17:24:08.850Z,50.60
2019-02-19T17:26:48.149Z,50.20
2019-02-19T17:29:43.695Z,49.80
2019-02-19T17:32:35.006Z,49.90
2019-02-19T17:35:33.422Z,50.10
2019-02-19T17:38:29.115Z,50.00
2019-02-19T17:41:18.708Z,49.90
2019-02-19T17:43:56.591Z,49.80
2019-02-19T17:46:36.300Z,49.70
2019-02-19T17:49:27.209Z,49.90
2019-02-19T17:52:23.022Z,49.80
2019-02-19T17:55:15.810Z,49.70
2019-02-19T17:57:53.717Z,49.70
2019-02-19T18:00:49.866Z,50.40
2019-02-19T18:03:30.413Z,49.70
2019-02-19T18:06:33.154Z,49.70
2019-02-19T18:09:12.328Z,49.70
2019-02-19T18:11:48.517Z,49.60
2019-02-19T18:14:44.778Z,49.20
2019-02-19T18:17:50.142Z,49.10
2019-02-19T18:20:21.717Z,49.10
2019-02-19T18:22:52.547Z,52.20
2019-02-19T18:25:23.058Z,55.30
2019-02-19T18:27:58.776Z,57.50
2019-02-19T18:30:29.623Z,54.80
2019-02-19T18:33:00.665Z,58.00
2019-02-19T18:35:31.699Z,58.30
2019-02-19T18:38:02.451Z,62.80
2019-02-19T18:40:33.178Z,64.50
2019-02-19T18:43:03.943Z,71.60
2019-02-19T18:45:34.850Z,73.20
2019-02-19T18:48:05.718Z,72.40
2019-02-19T18:50:36.580Z,72.10
2019-02-19T18:53:07.622Z,69.50
2019-02-19T18:55:38.428Z,63.30
2019-02-19T18:58:09.378Z,59.10
2019-02-19T19:00:40.532Z,56.90
2019-02-19T19:03:11.464Z,55.30
2019-02-19T19:05:43.465Z,52.20
2019-02-19T19:08:14.949Z,52.10
2019-02-19T19:10:47.569Z,54.90
2019-02-19T19:13:18.850Z,53.30
2019-02-19T19:15:49.645Z,53.20
2019-02-19T19:18:20.312Z,52.80
2019-02-19T19:20:50.828Z,53.30
2019-02-19T19:23:21.390Z,55.00
2019-02-19T19:25:51.875Z,55.80
2019-02-19T19:28:22.607Z,56.20
2019-02-19T19:30:53.511Z,56.70
2019-02-19T19:33:24.548Z,57.50
2019-02-19T19:35:55.825Z,56.30
2019-02-19T19:38:26.591Z,54.80
2019-02-19T19:40:57.330Z,54.80
2019-02-19T19:43:28.050Z,54.40
2019-02-19T19:45:58.613Z,53.60
2019-02-19T19:48:29.644Z,53.70
2019-02-19T19:51:00.334Z,54.60
2019-02-19T19:53:31.098Z,55.00
2019-02-19T19:56:01.755Z,55.50
2019-02-19T19:58:32.301Z,55.70
2019-02-19T20:01:03.082Z,56.60
2019-02-19T20:03:34.216Z,56.10
2019-02-19T20:06:04.802Z,55.70
2019-02-19T20:08:35.553Z,55.10
2019-02-19T20:11:06.638Z,54.60
2019-02-19T20:13:37.258Z,54.00
2019-02-19T20:16:08.134Z,53.70
2019-02-19T20:18:39.430Z,53.40
2019-02-19T20:21:10.889Z,53.10
2019-02-19T20:23:41.787Z,52.90
2019-02-19T20:26:12.454Z,52.80
2019-02-19T20:28:43.064Z,52.50
2019-02-19T20:31:14.031Z,52.50
2019-02-19T20:33:44.926Z,52.10
2019-02-19T20:36:15.629Z,51.80
2019-02-19T20:38:46.560Z,52.10
2019-02-19T20:41:17.306Z,51.50
2019-02-19T20:43:48.096Z,51.10
2019-02-19T20:46:18.939Z,50.60
2019-02-19T20:48:49.755Z,49.90
2019-02-19T20:51:20.354Z,49.70
2019-02-19T20:53:51.578Z,49.30
2019-02-19T20:56:22.571Z,49.00
2019-02-19T20:58:53.346Z,48.80
2019-02-19T21:01:24.048Z,48.90
2019-02-19T21:03:54.744Z,48.70
2019-02-19T21:06:25.309Z,48.60
2019-02-19T21:08:56.453Z,48.60
2019-02-19T21:11:27.773Z,48.50
2019-02-19T21:13:58.793Z,48.60
2019-02-19T21:16:29.819Z,48.60
2019-02-19T21:19:00.667Z,48.70
2019-02-19T21:21:31.778Z,48.50
2019-02-19T21:24:02.874Z,48.40
2019-02-19T21:26:33.900Z,48.30
2019-02-19T21:29:04.955Z,48.20
2019-02-19T21:31:36.356Z,48.70
2019-02-19T21:34:07.262Z,47.90
2019-02-19T21:36:37.845Z,48.10
2019-02-19T21:39:08.700Z,48.50
2019-02-19T21:41:39.519Z,48.90
2019-02-19T21:44:11.759Z,52.70
2019-02-19T21:46:43.627Z,49.60
2019-02-19T21:49:14.686Z,49.40
2019-02-19T21:51:53.962Z,49.60
2019-02-19T21:54:20.818Z,50.60
2019-02-19T21:56:51.840Z,52.40
2019-02-19T21:59:22.823Z,53.70
2019-02-19T22:01:55.597Z,52.80
2019-02-19T22:04:28.645Z,53.00
2019-02-19T22:06:59.479Z,52.50
2019-02-19T22:09:32.715Z,52.50
2019-02-19T22:12:05.362Z,52.50
2019-02-19T22:14:38.145Z,53.70
2019-02-19T22:17:11.318Z,53.90
2019-02-19T22:19:42.311Z,53.50
2019-02-19T22:22:16.060Z,53.40
2019-02-19T22:24:49.366Z,53.50
2019-02-19T22:27:22.073Z,53.60
2019-02-19T22:29:52.925Z,53.40
2019-02-19T22:32:25.501Z,53.40
2019-02-19T22:34:56.172Z,53.40
2019-02-19T22:37:28.088Z,53.40
2019-02-19T22:39:59.925Z,53.40
2019-02-19T22:42:32.011Z,53.50
2019-02-19T22:45:03.182Z,53.40
2019-02-19T22:47:33.830Z,53.40
2019-02-19T22:50:04.287Z,53.30
2019-02-19T22:52:35.873Z,53.40
2019-02-19T22:55:24.789Z,53.50
2019-02-19T22:57:55.620Z,53.40
2019-02-19T23:00:44.544Z,53.10
2019-02-19T23:03:16.918Z,52.70
2019-02-19T23:05:48.192Z,52.30
2019-02-19T23:08:19.453Z,51.90
2019-02-19T23:10:50.792Z,51.90
2019-02-19T23:13:22.449Z,51.70
2019-02-19T23:15:54.139Z,51.50
2019-02-19T23:18:26.541Z,51.10
2019-02-19T23:20:57.220Z,50.70
2019-02-19T23:23:28.214Z,50.40
2019-02-19T23:26:00.832Z,50.30
2019-02-19T23:28:33.562Z,50.10
2019-02-19T23:31:06.232Z,50.00
2019-02-19T23:33:39.021Z,49.80
2019-02-19T23:36:23.803Z,50.10
2019-02-19T23:38:54.397Z,49.50
2019-02-19T23:41:25.159Z,49.40
2019-02-19T23:43:55.719Z,49.20
2019-02-19T23:46:26.529Z,49.40
2019-02-19T23:48:57.066Z,49.20
2019-02-19T23:51:27.906Z,49.10
2019-02-19T23:53:58.648Z,49.30
2019-02-19T23:56:29.136Z,49.50
2019-02-19T23:59:00.302Z,49.30
